createdAt,value
2018-04-10T00:00:07.470Z,28.10
2018-04-10T00:02:36.373Z,26.20
2018-04-10T00:05:05.560Z,26.13
2018-04-10T00:07:34.982Z,26.00
2018-04-10T00:10:09.060Z,26.93
2018-04-10T00:12:39.213Z,26.47
2018-04-10T00:15:07.617Z,27.33
2018-04-10T00:17:37.468Z,27.90
2018-04-10T00:20:06.218Z,27.50
2018-04-10T00:22:34.801Z,27.43
2018-04-10T00:25:03.145Z,29.33
2018-04-10T00:27:31.475Z,28.33
2018-04-10T00:30:00.465Z,28.17
2018-04-10T00:32:29.142Z,28.10
2018-04-10T00:34:57.845Z,28.00
2018-04-10T00:37:26.585Z,27.80
2018-04-10T00:39:54.929Z,29.10
2018-04-10T00:42:23.565Z,28.40
2018-04-10T00:44:51.827Z,29.40
2018-04-10T00:47:20.333Z,29.10
2018-04-10T00:49:52.641Z,29.70
2018-04-10T00:52:21.381Z,29.60
2018-04-10T00:54:49.816Z,27.97
2018-04-10T00:57:18.237Z,29.43
2018-04-10T00:59:47.139Z,29.50
2018-04-10T01:02:15.981Z,29.77
2018-04-10T01:04:44.333Z,30.80
2018-04-10T01:07:13.137Z,31.30
2018-04-10T01:09:42.005Z,29.57
2018-04-10T01:12:10.790Z,31.00
2018-04-10T01:14:39.569Z,30.77
2018-04-10T01:17:08.382Z,31.77
2018-04-10T01:19:37.501Z,31.67
2018-04-10T01:22:05.987Z,31.00
2018-04-10T01:24:34.617Z,32.83
2018-04-10T01:27:03.538Z,32.13
2018-04-10T01:29:33.150Z,32.07
2018-04-10T01:32:03.035Z,33.40
2018-04-10T01:34:31.293Z,35.13
2018-04-10T01:37:00.432Z,31.67
2018-04-10T01:39:29.086Z,32.10
2018-04-10T01:41:57.783Z,31.60
2018-04-10T01:44:26.312Z,32.03
2018-04-10T01:46:55.207Z,34.77
2018-04-10T01:49:23.909Z,33.80
2018-04-10T01:51:54.019Z,34.27
2018-04-10T01:54:22.536Z,35.73
2018-04-10T01:56:50.809Z,34.07
2018-04-10T01:59:19.365Z,34.17
2018-04-10T02:01:48.025Z,34.00
2018-04-10T02:04:16.485Z,35.20
2018-04-10T02:06:45.006Z,35.30
2018-04-10T02:09:14.330Z,34.17
2018-04-10T02:11:42.950Z,35.00
2018-04-10T02:14:11.303Z,35.80
2018-04-10T02:16:40.021Z,32.13
2018-04-10T02:19:08.985Z,36.03
2018-04-10T02:21:37.369Z,34.00
2018-04-10T02:24:06.069Z,35.83
2018-04-10T02:26:35.068Z,36.43
2018-04-10T02:29:03.721Z,35.07
2018-04-10T02:31:32.317Z,35.53
2018-04-10T02:34:01.550Z,34.60
2018-04-10T02:36:33.171Z,34.43
2018-04-10T02:39:02.046Z,34.73
2018-04-10T02:41:31.165Z,36.00
2018-04-10T02:44:00.371Z,36.17
2018-04-10T02:46:29.888Z,34.37
2018-04-10T02:48:59.364Z,35.00
2018-04-10T02:51:28.435Z,35.90
2018-04-10T02:53:57.649Z,34.73
2018-04-10T02:56:26.830Z,34.30
2018-04-10T02:58:56.366Z,35.60
2018-04-10T03:01:25.261Z,33.97
2018-04-10T03:03:54.165Z,35.03
2018-04-10T03:06:23.091Z,35.97
2018-04-10T03:08:52.073Z,34.97
2018-04-10T03:11:21.433Z,34.70
2018-04-10T03:13:51.166Z,36.13
2018-04-10T03:16:19.969Z,34.70
2018-04-10T03:18:48.739Z,33.47
2018-04-10T03:21:17.318Z,35.17
2018-04-10T03:23:46.275Z,37.53
2018-04-10T03:26:15.270Z,36.97
2018-04-10T03:28:44.881Z,35.13
2018-04-10T03:31:13.823Z,37.00
2018-04-10T03:33:43.046Z,37.60
2018-04-10T03:36:12.107Z,37.10
2018-04-10T03:38:41.035Z,36.27
2018-04-10T03:41:10.111Z,38.67
2018-04-10T03:43:38.614Z,35.47
2018-04-10T03:46:07.610Z,37.80
2018-04-10T03:48:36.778Z,38.37
2018-04-10T03:51:05.383Z,36.40
2018-04-10T03:53:33.742Z,38.23
2018-04-10T03:56:02.595Z,38.23
2018-04-10T03:58:31.370Z,36.47
2018-04-10T04:03:55.874Z,37.47
2018-04-10T04:06:24.272Z,37.10
2018-04-10T04:08:52.951Z,36.77
2018-04-10T04:11:21.535Z,37.80
2018-04-10T04:13:50.222Z,37.77
2018-04-10T04:16:27.605Z,37.93
2018-04-10T04:21:10.376Z,37.37
2018-04-10T04:23:38.726Z,37.93
2018-04-10T04:26:07.320Z,37.70
2018-04-10T04:28:36.143Z,41.60
2018-04-10T04:31:04.654Z,40.53
2018-04-10T04:33:33.458Z,41.77
2018-04-10T04:36:02.437Z,40.97
2018-04-10T04:38:31.737Z,39.67
2018-04-10T04:41:00.635Z,39.30
2018-04-10T04:43:29.085Z,39.97
2018-04-10T04:45:57.829Z,38.47
2018-04-10T04:48:26.605Z,38.60
2018-04-10T04:50:55.757Z,38.87
2018-04-10T04:53:24.703Z,39.23
2018-04-10T04:55:53.632Z,39.87
2018-04-10T04:58:22.924Z,38.07
2018-04-10T05:00:51.770Z,39.17
2018-04-10T05:03:21.805Z,39.57
2018-04-10T05:05:51.630Z,39.20
2018-04-10T05:08:22.443Z,40.00
2018-04-10T05:10:51.314Z,38.90
2018-04-10T05:13:20.027Z,38.50
2018-04-10T05:15:50.288Z,39.07
2018-04-10T05:18:20.599Z,38.43
2018-04-10T05:20:51.485Z,39.63
2018-04-10T05:23:22.726Z,38.67
2018-04-10T05:25:52.980Z,39.00
2018-04-10T05:28:22.870Z,42.50
2018-04-10T05:30:51.605Z,39.77
2018-04-10T05:33:21.397Z,36.63
2018-04-10T05:35:50.429Z,38.07
2018-04-10T05:38:19.473Z,39.03
2018-04-10T05:40:48.641Z,36.90
2018-04-10T05:43:19.773Z,35.93
2018-04-10T05:45:49.641Z,39.17
2018-04-10T05:48:18.800Z,38.17
2018-04-10T05:50:48.157Z,37.57
2018-04-10T05:53:16.642Z,36.50
2018-04-10T05:55:45.635Z,37.50
2018-04-10T05:58:14.617Z,35.97
2018-04-10T06:00:43.717Z,36.17
2018-04-10T06:03:12.367Z,37.30
2018-04-10T06:05:40.750Z,37.77
2018-04-10T06:08:10.300Z,35.50
2018-04-10T06:10:39.357Z,37.43
2018-04-10T06:13:07.663Z,36.60
2018-04-10T06:15:36.702Z,36.37
2018-04-10T06:18:05.747Z,36.93
2018-04-10T06:20:34.285Z,38.00
2018-04-10T06:23:03.374Z,36.43
2018-04-10T06:25:32.346Z,37.80
2018-04-10T06:28:00.885Z,37.60
2018-04-10T06:30:29.614Z,35.73
2018-04-10T06:32:58.626Z,36.00
2018-04-10T06:35:27.114Z,38.40
2018-04-10T06:37:56.146Z,36.13
2018-04-10T06:40:24.762Z,38.27
2018-04-10T06:42:53.061Z,36.23
2018-04-10T06:45:21.480Z,36.03
2018-04-10T06:47:49.993Z,35.80
2018-04-10T06:50:18.680Z,35.50
2018-04-10T06:52:47.030Z,35.73
2018-04-10T06:55:16.010Z,33.80
2018-04-10T06:57:44.653Z,35.90
2018-04-10T07:00:13.441Z,36.53
2018-04-10T07:02:42.406Z,34.87
2018-04-10T07:05:11.277Z,34.80
2018-04-10T07:07:39.987Z,34.27
2018-04-10T07:10:08.563Z,36.47
2018-04-10T07:12:36.978Z,34.60
2018-04-10T07:15:05.807Z,32.53
2018-04-10T07:17:34.594Z,34.83
2018-04-10T07:20:03.114Z,34.43
2018-04-10T07:22:31.584Z,33.30
2018-04-10T07:25:00.082Z,34.30
2018-04-10T07:27:28.713Z,33.37
2018-04-10T07:29:57.590Z,33.70
2018-04-10T07:32:26.543Z,33.50
2018-04-10T07:34:55.423Z,33.03
2018-04-10T07:37:23.867Z,32.10
2018-04-10T07:39:52.545Z,31.20
2018-04-10T07:42:20.971Z,31.23
2018-04-10T07:44:49.294Z,32.07
2018-04-10T07:47:17.618Z,32.37
2018-04-10T07:49:45.961Z,29.07
2018-04-10T07:52:14.674Z,30.10
2018-04-10T07:54:43.204Z,30.00
2018-04-10T07:57:11.958Z,29.93
2018-04-10T07:59:40.569Z,29.80
2018-04-10T08:02:09.262Z,30.70
2018-04-10T08:04:38.463Z,30.50
2018-04-10T08:07:07.073Z,30.13
2018-04-10T08:09:35.679Z,29.03
2018-04-10T08:12:04.519Z,28.47
2018-04-10T08:14:33.351Z,27.60
2018-04-10T08:17:02.204Z,26.83
2018-04-10T08:19:30.851Z,26.90
2018-04-10T08:21:59.626Z,25.73
2018-04-10T08:24:28.602Z,26.57
2018-04-10T08:26:57.530Z,24.60
2018-04-10T08:29:25.778Z,26.90
2018-04-10T08:31:54.268Z,27.20
2018-04-10T08:34:22.824Z,25.70
2018-04-10T08:36:51.166Z,25.30
2018-04-10T08:39:19.775Z,26.83
2018-04-10T08:41:48.065Z,26.00
2018-04-10T08:44:16.618Z,24.40
2018-04-10T08:46:45.658Z,25.93
2018-04-10T08:49:14.066Z,23.50
2018-04-10T08:51:42.521Z,23.87
2018-04-10T08:54:11.266Z,24.40
2018-04-10T08:56:39.970Z,23.50
2018-04-10T08:59:10.592Z,24.47
2018-04-10T09:01:39.736Z,24.63
2018-04-10T09:04:08.462Z,22.17
2018-04-10T09:06:37.240Z,21.60
2018-04-10T09:09:06.975Z,22.23
2018-04-10T09:11:35.345Z,22.47
2018-04-10T09:14:04.342Z,21.60
2018-04-10T09:16:32.682Z,22.57
2018-04-10T09:19:01.345Z,22.10
2018-04-10T09:21:29.740Z,21.63
2018-04-10T09:23:58.435Z,23.60
2018-04-10T09:26:27.174Z,21.27
2018-04-10T09:28:55.765Z,22.93
2018-04-10T09:31:24.346Z,23.50
2018-04-10T09:33:53.293Z,21.20
2018-04-10T09:36:23.153Z,20.83
2018-04-10T09:38:51.694Z,22.73
2018-04-10T09:41:20.239Z,23.20
2018-04-10T09:43:48.831Z,21.70
2018-04-10T09:46:17.778Z,21.60
2018-04-10T09:48:46.440Z,22.90
2018-04-10T09:51:14.784Z,23.90
2018-04-10T09:53:43.393Z,24.70
2018-04-10T09:56:12.039Z,21.40
2018-04-10T09:58:40.738Z,22.17
2018-04-10T10:01:09.181Z,22.23
2018-04-10T10:03:37.974Z,22.47
2018-04-10T10:06:06.310Z,21.63
2018-04-10T10:08:35.369Z,20.30
2018-04-10T10:11:03.862Z,20.20
2018-04-10T10:13:32.507Z,20.90
2018-04-10T10:16:00.863Z,20.50
2018-04-10T10:18:29.233Z,20.83
2018-04-10T10:20:59.238Z,20.90
2018-04-10T10:23:28.127Z,22.27
2018-04-10T10:25:56.644Z,21.40
2018-04-10T10:28:25.521Z,20.33
2018-04-10T10:30:53.996Z,20.60
2018-04-10T10:33:22.395Z,21.10
2018-04-10T10:35:51.154Z,19.70
2018-04-10T10:38:19.918Z,15.97
2018-04-10T10:40:48.654Z,16.80
2018-04-10T10:43:17.172Z,15.20
2018-04-10T10:45:45.971Z,16.40
2018-04-10T10:48:14.528Z,16.27
2018-04-10T10:50:43.015Z,16.77
2018-04-10T10:53:11.568Z,14.73
2018-04-10T10:55:40.321Z,14.77
2018-04-10T10:58:08.878Z,15.27
2018-04-10T11:00:37.431Z,15.37
2018-04-10T11:03:07.042Z,13.40
2018-04-10T11:05:35.337Z,13.20
2018-04-10T11:08:03.854Z,14.13
2018-04-10T11:10:35.605Z,13.40
2018-04-10T11:13:04.119Z,13.07
2018-04-10T11:15:32.489Z,12.33
2018-04-10T11:18:01.278Z,12.73
2018-04-10T11:20:29.998Z,12.83
2018-04-10T11:22:58.659Z,12.13
2018-04-10T11:25:27.026Z,11.10
2018-04-10T11:27:55.742Z,12.83
2018-04-10T11:30:24.218Z,11.23
2018-04-10T11:32:53.281Z,11.53
2018-04-10T11:35:21.826Z,11.27
2018-04-10T11:37:50.641Z,11.57
2018-04-10T11:40:19.055Z,10.60
2018-04-10T11:42:47.842Z,11.90
2018-04-10T11:45:16.634Z,11.40
2018-04-10T11:47:45.425Z,11.10
2018-04-10T11:50:13.802Z,12.10
2018-04-10T11:52:42.227Z,10.70
2018-04-10T11:55:10.879Z,10.50
2018-04-10T11:57:39.495Z,12.40
2018-04-10T12:00:08.279Z,10.00
2018-04-10T12:02:37.150Z,10.70
2018-04-10T12:05:06.078Z,10.30
2018-04-10T12:07:34.770Z,10.13
2018-04-10T12:10:03.661Z,10.70
2018-04-10T12:12:32.566Z,11.17
2018-04-10T12:15:01.437Z,10.90
2018-04-10T12:17:30.198Z,12.33
2018-04-10T12:19:58.835Z,11.00
2018-04-10T12:22:27.663Z,11.70
2018-04-10T12:24:56.016Z,10.60
2018-04-10T12:27:24.807Z,11.47
2018-04-10T12:29:53.321Z,10.30
2018-04-10T12:32:22.101Z,11.03
2018-04-10T12:34:50.425Z,10.40
2018-04-10T12:37:19.396Z,8.77
2018-04-10T12:39:48.241Z,10.97
2018-04-10T12:42:16.733Z,9.90
2018-04-10T12:44:45.254Z,9.70
2018-04-10T12:47:14.004Z,10.20
2018-04-10T12:49:42.261Z,9.40
2018-04-10T12:52:10.756Z,9.27
2018-04-10T12:54:39.385Z,8.80
2018-04-10T12:57:07.709Z,9.43
2018-04-10T12:59:36.083Z,8.90
2018-04-10T13:02:04.550Z,9.07
2018-04-10T13:04:33.506Z,7.47
2018-04-10T13:07:01.902Z,7.40
2018-04-10T13:09:30.288Z,7.80
2018-04-10T13:11:58.774Z,7.30
2018-04-10T13:14:27.467Z,7.50
2018-04-10T13:16:55.893Z,7.40
2018-04-10T13:19:24.766Z,7.73
2018-04-10T13:21:53.465Z,6.80
2018-04-10T13:24:21.905Z,7.60
2018-04-10T13:26:50.729Z,7.27
2018-04-10T13:29:19.209Z,7.40
2018-04-10T13:31:47.662Z,5.80
2018-04-10T13:34:16.028Z,5.50
2018-04-10T13:36:44.359Z,6.80
2018-04-10T13:39:13.090Z,6.90
2018-04-10T13:41:41.600Z,6.80
2018-04-10T13:44:10.866Z,6.30
2018-04-10T13:46:39.685Z,6.17
2018-04-10T13:49:08.755Z,6.67
2018-04-10T13:51:37.545Z,6.47
2018-04-10T13:54:06.278Z,8.17
2018-04-10T13:56:34.989Z,9.27
2018-04-10T13:59:03.732Z,8.80
2018-04-10T14:01:32.153Z,9.30
2018-04-10T14:04:00.519Z,11.03
2018-04-10T14:06:28.854Z,10.60
2018-04-10T14:08:57.150Z,10.57
2018-04-10T14:11:25.449Z,9.80
2018-04-10T14:13:54.521Z,11.03
2018-04-10T14:16:23.254Z,11.40
2018-04-10T14:20:06.046Z,11.10
2018-04-10T14:22:34.369Z,12.30
2018-04-10T14:25:02.877Z,10.90
2018-04-10T14:27:31.630Z,12.50
2018-04-10T14:30:00.707Z,11.93
2018-04-10T14:32:29.376Z,14.70
2018-04-10T14:34:58.118Z,12.10
2018-04-10T14:37:26.674Z,12.87
2018-04-10T14:39:55.006Z,13.30
2018-04-10T14:42:23.888Z,13.93
2018-04-10T14:44:53.026Z,13.93
2018-04-10T14:47:21.799Z,13.97
2018-04-10T14:49:50.226Z,12.57
2018-04-10T14:52:18.558Z,12.97
2018-04-10T14:54:47.181Z,12.43
2018-04-10T14:57:15.693Z,12.67
2018-04-10T14:59:44.382Z,12.90
2018-04-10T15:02:13.037Z,11.60
2018-04-10T15:04:41.517Z,11.43
2018-04-10T15:07:09.913Z,11.40
2018-04-10T15:09:38.682Z,11.40
2018-04-10T15:12:07.317Z,11.00
2018-04-10T15:14:36.436Z,10.90
2018-04-10T15:17:05.267Z,11.23
2018-04-10T15:19:33.816Z,11.37
2018-04-10T15:22:02.132Z,10.73
2018-04-10T15:24:30.750Z,11.40
2018-04-10T15:26:59.514Z,10.73
2018-04-10T15:29:27.774Z,11.20
2018-04-10T15:31:56.533Z,12.20
2018-04-10T15:34:25.286Z,11.40
2018-04-10T15:36:53.781Z,11.00
2018-04-10T15:39:22.317Z,10.97
2018-04-10T15:41:51.080Z,12.53
2018-04-10T15:44:20.225Z,11.33
2018-04-10T15:46:48.594Z,10.00
2018-04-10T15:49:16.998Z,9.90
2018-04-10T15:51:45.374Z,9.30
2018-04-10T15:54:14.213Z,10.47
2018-04-10T15:56:42.782Z,9.60
2018-04-10T15:59:12.599Z,9.23
2018-04-10T16:01:41.142Z,9.23
2018-04-10T16:04:11.442Z,8.97
2018-04-10T16:06:41.875Z,9.87
2018-04-10T16:09:10.428Z,10.03
2018-04-10T16:11:38.778Z,9.77
2018-04-10T16:14:07.089Z,11.00
2018-04-10T16:16:35.896Z,8.90
2018-04-10T16:19:04.759Z,7.50
2018-04-10T16:21:33.418Z,6.53
2018-04-10T16:24:02.064Z,6.53
2018-04-10T16:26:30.474Z,4.83
2018-04-10T16:28:58.979Z,5.23
2018-04-10T16:31:27.823Z,4.97
2018-04-10T16:33:56.586Z,4.03
2018-04-10T16:36:25.042Z,4.43
2018-04-10T16:38:53.561Z,4.50
2018-04-10T16:41:22.009Z,3.53
2018-04-10T16:43:50.986Z,4.10
2018-04-10T16:46:19.873Z,4.00
2018-04-10T16:48:48.173Z,4.13
2018-04-10T16:51:16.956Z,4.03
2018-04-10T16:53:45.989Z,5.27
2018-04-10T16:56:14.769Z,3.83
2018-04-10T16:58:43.062Z,3.10
2018-04-10T17:01:11.560Z,3.20
2018-04-10T17:03:40.172Z,3.73
2018-04-10T17:06:09.035Z,3.00
2018-04-10T17:08:37.357Z,3.20
2018-04-10T17:11:05.775Z,3.70
2018-04-10T17:13:34.242Z,4.10
2018-04-10T17:16:03.055Z,3.07
2018-04-10T17:18:31.952Z,3.37
2018-04-10T17:21:00.474Z,3.80
2018-04-10T17:23:30.329Z,3.33
2018-04-10T17:25:59.898Z,3.50
2018-04-10T17:28:28.364Z,3.17
2018-04-10T17:30:58.612Z,3.90
2018-04-10T17:33:27.096Z,3.43
2018-04-10T17:35:55.874Z,3.87
2018-04-10T17:38:26.015Z,3.73
2018-04-10T17:40:55.891Z,3.90
2018-04-10T17:43:25.617Z,3.50
2018-04-10T17:45:54.733Z,3.37
2018-04-10T17:48:23.581Z,3.77
2018-04-10T17:50:53.286Z,3.53
2018-04-10T17:53:23.707Z,4.10
2018-04-10T17:55:52.714Z,2.73
2018-04-10T17:58:21.435Z,2.97
2018-04-10T18:00:50.773Z,4.10
2018-04-10T18:03:19.541Z,3.77
2018-04-10T18:05:48.407Z,3.83
2018-04-10T18:08:17.018Z,3.90
2018-04-10T18:10:45.733Z,3.73
2018-04-10T18:13:14.470Z,3.30
2018-04-10T18:15:43.504Z,3.23
2018-04-10T18:18:12.821Z,3.20
2018-04-10T18:20:41.174Z,3.60
2018-04-10T18:23:09.713Z,3.40
2018-04-10T18:25:38.737Z,3.57
2018-04-10T18:28:07.056Z,3.30
2018-04-10T18:30:35.482Z,3.53
2018-04-10T18:33:04.138Z,3.07
2018-04-10T18:35:32.699Z,3.47
2018-04-10T18:38:01.118Z,3.40
2018-04-10T18:40:29.607Z,4.30
2018-04-10T18:42:57.923Z,3.00
2018-04-10T18:45:26.937Z,4.20
2018-04-10T18:47:55.339Z,3.47
2018-04-10T18:50:23.945Z,3.47
2018-04-10T18:52:52.318Z,3.53
2018-04-10T18:55:21.149Z,3.93
2018-04-10T18:57:49.578Z,3.07
2018-04-10T19:00:18.122Z,3.17
2018-04-10T19:02:46.788Z,3.23
2018-04-10T19:05:15.705Z,3.50
2018-04-10T19:07:46.914Z,3.37
2018-04-10T19:10:16.185Z,3.47
2018-04-10T19:12:45.010Z,3.40
2018-04-10T19:15:13.601Z,3.60
2018-04-10T19:17:41.893Z,4.33
2018-04-10T19:20:10.641Z,4.97
2018-04-10T19:22:39.062Z,6.60
2018-04-10T19:25:07.886Z,8.00
2018-04-10T19:27:36.218Z,8.40
2018-04-10T19:30:07.331Z,9.57
2018-04-10T19:32:37.015Z,10.67
2018-04-10T19:35:06.246Z,11.00
2018-04-10T19:37:34.692Z,13.53
2018-04-10T19:40:03.056Z,15.33
2018-04-10T19:42:31.966Z,15.37
2018-04-10T19:45:01.010Z,17.07
2018-04-10T19:47:29.929Z,18.60
2018-04-10T19:49:58.591Z,19.33
2018-04-10T19:52:27.679Z,19.07
2018-04-10T19:54:57.170Z,18.93
2018-04-10T19:57:25.706Z,18.90
2018-04-10T19:59:54.339Z,18.77
2018-04-10T20:02:22.973Z,19.03
2018-04-10T20:04:51.585Z,18.23
2018-04-10T20:07:20.387Z,19.20
2018-04-10T20:09:49.614Z,19.00
2018-04-10T20:12:18.867Z,18.63
2018-04-10T20:14:47.803Z,20.40
2018-04-10T20:17:16.330Z,20.20
2018-04-10T20:19:44.966Z,19.60
2018-04-10T20:22:14.080Z,19.70
2018-04-10T20:24:41.902Z,18.40
2018-04-10T20:27:10.262Z,18.70
2018-04-10T20:29:38.921Z,20.43
2018-04-10T20:32:07.566Z,19.40
2018-04-10T20:34:36.346Z,18.80
2018-04-10T20:37:05.281Z,18.80
2018-04-10T20:39:34.062Z,18.17
2018-04-10T20:42:02.588Z,17.73
2018-04-10T20:44:31.391Z,19.37
2018-04-10T20:47:00.815Z,17.50
2018-04-10T20:49:29.552Z,19.10
2018-04-10T20:52:00.262Z,20.57
2018-04-10T20:54:29.225Z,19.00
2018-04-10T20:56:58.521Z,19.53
2018-04-10T20:59:27.570Z,20.27
